Time;durP1;ratioP1;P1;durP2;ratioP2;P2;SDS_P1;SDS_P2;PMS_P1;PMS_P2;Temp;Humidity;BMP_temperature;BMP_pressure;BME280_temperature;BME280_humidity;BME280_pressure;Samples;Min_cycle;Max_cycle;Signal;HPM_P1;HPM_P2
2022/09/30 00:01:48;;;;;;;5.10;4.07;;;14.40;59.00;;;;;;5049644;28;20462;-50
2022/09/30 00:04:16;;;;;;;6.90;5.07;;;14.40;58.90;;;;;;5041669;28;20271;-46
2022/09/30 00:06:42;;;;;;;5.30;4.80;;;14.30;58.70;;;;;;5045939;28;20458;-46
2022/09/30 00:09:10;;;;;;;6.67;5.00;;;14.30;58.70;;;;;;5042712;28;20427;-46
2022/09/30 00:11:37;;;;;;;5.27;4.77;;;14.30;58.60;;;;;;5042155;28;20442;-46
2022/09/30 00:14:03;;;;;;;5.20;4.60;;;14.30;58.60;;;;;;5044463;28;20553;-49
2022/09/30 00:16:32;;;;;;;4.70;4.30;;;14.30;58.70;;;;;;5036296;28;20461;-50
2022/09/30 00:18:59;;;;;;;5.20;4.17;;;14.20;59.60;;;;;;5041751;28;20237;-46
2022/09/30 00:21:26;;;;;;;7.60;5.30;;;14.20;59.40;;;;;;5037421;28;20554;-45
2022/09/30 00:23:52;;;;;;;5.23;4.73;;;14.20;59.60;;;;;;5039771;28;20536;-46
2022/09/30 00:26:20;;;;;;;6.73;4.93;;;14.10;59.80;;;;;;5045731;28;20852;-45
2022/09/30 00:28:50;;;;;;;8.80;5.40;;;14.00;60.10;;;;;;5038879;28;20256;-47
2022/09/30 00:31:16;;;;;;;5.80;4.77;;;13.90;60.50;;;;;;5046508;28;20510;-46
2022/09/30 00:33:43;;;;;;;6.07;5.17;;;14.00;60.60;;;;;;5045249;28;20524;-47
2022/09/30 00:36:09;;;;;;;5.30;4.60;;;14.00;60.20;;;;;;5042827;28;20953;-48
2022/09/30 00:38:35;;;;;;;4.83;4.40;;;14.10;59.80;;;;;;5046586;28;20447;-46
2022/09/30 00:41:01;;;;;;;4.47;4.07;;;14.10;59.50;;;;;;5046601;28;20435;-47
2022/09/30 00:43:56;;;;;;;4.30;3.90;;;14.10;59.20;;;;;;5049232;28;20350;-46
2022/09/30 00:46:34;;;;;;;6.63;4.50;;;14.10;59.20;;;;;;5026829;28;20441;-47
2022/09/30 00:49:06;;;;;;;5.77;3.87;;;14.10;59.10;;;;;;5032282;28;20454;-46
2022/09/30 00:51:37;;;;;;;8.50;4.83;;;14.20;59.20;;;;;;5043090;28;20431;-46
2022/09/30 00:54:08;;;;;;;5.33;4.47;;;14.10;59.20;;;;;;5039949;28;20467;-49
2022/09/30 00:56:41;;;;;;;6.23;4.40;;;14.10;59.40;;;;;;5042100;28;20493;-46
2022/09/30 00:59:12;;;;;;;5.27;4.30;;;14.00;59.70;;;;;;5047575;28;20956;-46
2022/09/30 01:01:39;;;;;;;7.43;4.63;;;13.80;60.40;;;;;;5048267;28;20443;-46
2022/09/30 01:04:14;;;;;;;5.47;4.23;;;13.60;60.80;;;;;;5035012;28;20996;-46
2022/09/30 01:06:40;;;;;;;4.67;4.27;;;13.40;61.40;;;;;;5046297;28;20806;-46
2022/09/30 01:09:06;;;;;;;5.23;4.73;;;13.40;62.00;;;;;;5045069;28;20455;-46
2022/09/30 01:11:31;;;;;;;5.40;4.10;;;13.40;62.10;;;;;;5047986;28;20450;-46
2022/09/30 01:14:12;;;;;;;6.90;4.83;;;13.40;62.00;;;;;;5043228;28;20451;-47
2022/09/30 01:16:59;;;;;;;4.73;3.80;;;13.20;62.90;;;;;;5033176;28;20199;-46
2022/09/30 01:19:58;;;;;;;6.73;5.27;;;13.10;63.30;;;;;;5039273;28;20460;-46
2022/09/30 01:22:34;;;;;;;5.03;4.63;;;12.80;63.90;;;;;;5041098;28;20469;-46
2022/09/30 01:25:12;;;;;;;4.50;4.10;;;12.80;64.90;;;;;;5036374;28;20864;-47
2022/09/30 01:28:03;;;;;;;5.37;4.83;;;12.80;65.50;;;;;;5045344;28;20512;-49
2022/09/30 01:31:07;;;;;;;5.03;4.53;;;12.80;65.00;;;;;;5049572;28;20521;-47
2022/09/30 01:34:15;;;;;;;4.97;4.50;;;12.90;65.60;;;;;;5044493;28;20458;-48
2022/09/30 01:36:46;;;;;;;6.40;4.50;;;13.10;65.10;;;;;;5017727;28;20454;-47
2022/09/30 01:39:39;;;;;;;5.40;4.50;;;13.20;64.40;;;;;;5040877;28;20450;-46
2022/09/30 01:42:11;;;;;;;6.13;4.90;;;13.40;64.20;;;;;;5042977;28;20537;-46
2022/09/30 01:45:01;;;;;;;5.60;4.97;;;13.50;63.70;;;;;;5043296;28;20509;-47
2022/09/30 01:47:46;;;;;;;5.20;4.60;;;13.50;63.70;;;;;;5041079;28;20535;-47
2022/09/30 01:50:18;;;;;;;9.67;4.37;;;13.60;63.30;;;;;;5036742;28;20467;-48
2022/09/30 01:53:06;;;;;;;7.37;4.77;;;13.50;63.40;;;;;;5039129;28;20455;-46
2022/09/30 01:55:35;;;;;;;5.10;4.40;;;13.50;63.20;;;;;;5045845;28;20899;-48
2022/09/30 01:58:12;;;;;;;5.33;4.90;;;13.40;63.60;;;;;;5046070;28;20450;-49
2022/09/30 02:00:43;;;;;;;6.40;4.70;;;13.40;63.60;;;;;;5040442;28;20972;-47
2022/09/30 02:03:20;;;;;;;6.13;4.90;;;13.20;64.50;;;;;;5042984;28;20487;-46
2022/09/30 02:05:57;;;;;;;5.57;4.77;;;13.10;64.40;;;;;;5035646;28;20451;-46
2022/09/30 02:08:29;;;;;;;4.70;4.40;;;12.90;65.50;;;;;;5038706;28;20505;-47
2022/09/30 02:11:00;;;;;;;5.83;5.33;;;12.80;65.80;;;;;;5040376;28;20440;-47
2022/09/30 02:13:34;;;;;;;6.70;5.37;;;12.80;65.80;;;;;;5047499;28;20447;-51
2022/09/30 02:16:11;;;;;;;5.73;5.20;;;12.70;66.30;;;;;;5043925;28;20500;-47
2022/09/30 02:18:51;;;;;;;5.50;4.90;;;12.80;66.40;;;;;;5040523;28;20447;-47
2022/09/30 02:21:25;;;;;;;5.13;4.63;;;12.90;65.50;;;;;;5049927;28;20915;-47
2022/09/30 02:23:56;;;;;;;7.43;5.60;;;13.00;65.50;;;;;;5043829;28;20544;-47
2022/09/30 02:26:30;;;;;;;7.53;6.80;;;13.00;65.20;;;;;;5040685;28;20451;-47
2022/09/30 02:29:26;;;;;;;5.53;4.90;;;13.10;65.20;;;;;;5042008;28;21043;-46
2022/09/30 02:31:58;;;;;;;8.93;5.97;;;13.30;64.80;;;;;;5047054;28;20447;-46
2022/09/30 02:34:29;;;;;;;5.67;5.17;;;13.40;64.40;;;;;;5045789;28;20833;-46
2022/09/30 02:37:12;;;;;;;5.80;5.10;;;13.40;63.90;;;;;;5050318;28;20446;-47
2022/09/30 02:39:44;;;;;;;8.00;5.27;;;13.40;64.10;;;;;;5048571;28;20465;-46
2022/09/30 02:42:27;;;;;;;6.33;5.63;;;13.50;64.00;;;;;;5044038;28;20482;-46
2022/09/30 02:44:58;;;;;;;7.63;5.30;;;13.50;64.00;;;;;;5048034;28;20450;-46
2022/09/30 02:47:42;;;;;;;5.70;5.20;;;13.60;64.10;;;;;;5048513;28;20489;-47
2022/09/30 02:50:27;;;;;;;6.43;5.70;;;13.60;63.80;;;;;;5048181;28;20435;-46
2022/09/30 02:53:13;;;;;;;7.10;5.73;;;13.70;63.40;;;;;;5050020;28;20783;-46
2022/09/30 02:55:49;;;;;;;6.40;4.57;;;13.60;63.40;;;;;;5047315;28;20709;-46
2022/09/30 02:58:28;;;;;;;6.33;5.47;;;13.60;63.40;;;;;;5049714;28;20439;-46
2022/09/30 03:00:53;;;;;;;5.43;4.93;;;13.60;62.80;;;;;;5051785;28;20447;-47
2022/09/30 03:03:21;;;;;;;5.10;4.50;;;13.60;62.70;;;;;;5045674;28;20506;-46
2022/09/30 03:05:49;;;;;;;6.30;5.70;;;13.70;62.60;;;;;;5045884;28;20193;-45
2022/09/30 03:08:15;;;;;;;6.53;5.93;;;13.60;62.30;;;;;;5049472;28;20942;-46
2022/09/30 03:10:42;;;;;;;6.37;5.77;;;13.60;62.10;;;;;;5044556;28;21071;-47
2022/09/30 03:13:19;;;;;;;6.00;5.50;;;13.60;62.30;;;;;;5049312;28;20580;-48
2022/09/30 03:15:45;;;;;;;5.70;5.20;;;13.40;62.50;;;;;;5044047;28;20451;-46
2022/09/30 03:18:48;;;;;;;6.20;5.60;;;13.40;63.10;;;;;;5042575;28;20782;-47
2022/09/30 03:21:26;;;;;;;6.90;5.47;;;13.40;62.90;;;;;;5035780;28;20283;-46
2022/09/30 03:24:07;;;;;;;6.97;5.80;;;13.50;62.90;;;;;;5038049;28;20487;-47
2022/09/30 03:26:57;;;;;;;6.00;5.40;;;13.50;62.70;;;;;;5044530;28;20526;-47
2022/09/30 03:29:36;;;;;;;6.87;6.00;;;13.60;62.60;;;;;;5046893;28;20471;-46
2022/09/30 03:32:43;;;;;;;6.90;5.70;;;13.50;62.30;;;;;;5047288;28;20450;-46
2022/09/30 03:35:34;;;;;;;6.33;5.70;;;13.50;62.20;;;;;;4945437;28;20606;-46
2022/09/30 03:38:09;;;;;;;6.63;5.60;;;13.50;62.20;;;;;;4940270;28;21754;-48
2022/09/30 03:40:48;;;;;;;6.20;5.40;;;13.50;62.10;;;;;;5016567;28;20459;-46
2022/09/30 03:43:34;;;;;;;7.70;5.80;;;13.50;61.80;;;;;;5045545;28;20489;-46
2022/09/30 03:46:06;;;;;;;5.90;5.40;;;13.60;61.80;;;;;;5046371;28;20480;-46
2022/09/30 03:48:34;;;;;;;5.73;5.13;;;13.60;61.80;;;;;;5046252;28;20443;-47
2022/09/30 03:51:01;;;;;;;6.73;6.13;;;13.60;61.90;;;;;;5039182;28;20446;-45
2022/09/30 03:53:27;;;;;;;5.80;5.23;;;13.60;61.70;;;;;;5044119;28;20434;-46
2022/09/30 03:55:53;;;;;;;5.33;4.83;;;13.20;61.50;;;;;;5048179;28;20447;-46
2022/09/30 03:58:24;;;;;;;6.07;5.30;;;12.90;62.70;;;;;;5043000;28;20497;-47
2022/09/30 04:00:51;;;;;;;10.60;5.43;;;12.50;64.10;;;;;;5043925;28;20447;-46
2022/09/30 04:03:18;;;;;;;5.33;4.90;;;12.50;65.00;;;;;;5046321;28;20508;-45
2022/09/30 04:05:45;;;;;;;8.00;5.47;;;12.70;65.30;;;;;;5041716;28;20941;-46
2022/09/30 04:08:10;;;;;;;6.50;5.40;;;12.70;65.00;;;;;;5042789;28;20467;-45
2022/09/30 04:10:41;;;;;;;5.97;5.37;;;12.70;64.70;;;;;;5045160;28;20446;-46
2022/09/30 04:13:07;;;;;;;6.17;5.57;;;12.70;64.60;;;;;;5043739;28;20279;-46
2022/09/30 04:15:35;;;;;;;6.37;5.77;;;12.80;64.30;;;;;;5041012;28;20515;-46
2022/09/30 04:18:01;;;;;;;7.40;5.83;;;12.90;64.10;;;;;;5047420;28;20443;-46
2022/09/30 04:20:28;;;;;;;6.30;5.60;;;13.00;63.50;;;;;;5041042;28;20888;-50
2022/09/30 04:22:59;;;;;;;8.63;4.87;;;13.00;63.40;;;;;;5039868;28;20474;-46
2022/09/30 04:25:26;;;;;;;5.90;5.30;;;12.90;63.10;;;;;;5025271;28;20876;-46
2022/09/30 04:27:52;;;;;;;5.50;5.00;;;13.00;63.00;;;;;;5046387;28;20450;-46
2022/09/30 04:30:18;;;;;;;5.70;5.17;;;13.00;62.80;;;;;;5044555;28;20499;-48
2022/09/30 04:32:44;;;;;;;6.17;5.60;;;13.00;62.60;;;;;;5042916;28;20868;-49
2022/09/30 04:35:12;;;;;;;25.10;5.80;;;12.80;62.30;;;;;;5043760;28;20582;-46
2022/09/30 04:37:44;;;;;;;15.73;6.27;;;12.10;64.40;;;;;;5046957;28;20207;-47
2022/09/30 04:40:11;;;;;;;43.03;7.73;;;11.90;66.60;;;;;;5042771;28;20443;-49
2022/09/30 04:42:38;;;;;;;11.63;5.87;;;12.00;67.10;;;;;;5045915;28;20477;-50
2022/09/30 04:45:05;;;;;;;15.17;6.00;;;12.00;67.00;;;;;;5040523;28;20492;-50
2022/09/30 04:47:30;;;;;;;13.27;5.93;;;12.20;66.80;;;;;;5037892;28;20439;-49
2022/09/30 04:49:56;;;;;;;7.07;6.30;;;12.30;66.20;;;;;;5049939;28;20443;-51
2022/09/30 04:52:22;;;;;;;14.20;6.53;;;12.40;65.50;;;;;;5043732;28;20604;-51
2022/09/30 04:54:48;;;;;;;28.20;6.90;;;12.60;65.10;;;;;;5044003;28;20196;-50
2022/09/30 04:57:13;;;;;;;25.70;8.40;;;12.60;64.60;;;;;;5047093;28;20447;-51
2022/09/30 04:59:40;;;;;;;7.00;6.30;;;12.40;64.90;;;;;;5040156;28;20197;-50
2022/09/30 05:02:05;;;;;;;15.83;6.47;;;12.40;65.60;;;;;;5039826;28;20189;-50
2022/09/30 05:04:32;;;;;;;50.47;7.70;;;12.40;65.50;;;;;;5044759;28;20616;-50
2022/09/30 05:06:59;;;;;;;7.93;5.60;;;12.50;65.20;;;;;;5039755;28;20204;-48
2022/09/30 05:09:24;;;;;;;12.80;6.63;;;12.40;65.00;;;;;;5038790;28;20492;-51
2022/09/30 05:11:50;;;;;;;16.97;7.03;;;12.30;65.40;;;;;;5046343;28;20451;-50
2022/09/30 05:14:16;;;;;;;7.10;5.80;;;12.40;65.80;;;;;;5044801;28;20238;-49
2022/09/30 05:16:42;;;;;;;20.77;7.43;;;12.40;65.00;;;;;;5039928;28;20927;-50
2022/09/30 05:19:07;;;;;;;31.67;9.00;;;12.50;64.90;;;;;;5040542;28;20206;-50
2022/09/30 05:21:34;;;;;;;13.53;9.53;;;12.60;64.70;;;;;;5040855;28;20242;-50
2022/09/30 05:24:00;;;;;;;26.97;6.67;;;12.80;65.50;;;;;;5044512;28;20303;-48
2022/09/30 05:26:27;;;;;;;8.30;6.20;;;13.00;66.30;;;;;;5038979;28;21136;-50
2022/09/30 05:28:52;;;;;;;5.87;5.20;;;12.90;66.00;;;;;;5041573;28;20532;-51
2022/09/30 05:31:19;;;;;;;9.37;6.40;;;13.10;66.50;;;;;;5032376;28;20442;-47
2022/09/30 05:33:45;;;;;;;11.67;8.40;;;13.40;66.60;;;;;;5040148;28;20236;-48
2022/09/30 05:36:13;;;;;;;12.60;6.37;;;13.60;65.90;;;;;;5042716;28;20451;-49
2022/09/30 05:38:39;;;;;;;21.13;6.17;;;13.60;63.20;;;;;;5039568;28;20876;-48
2022/09/30 05:41:12;;;;;;;6.53;5.93;;;13.60;63.80;;;;;;5039885;28;20519;-46
2022/09/30 05:43:39;;;;;;;9.53;5.40;;;13.60;63.80;;;;;;5045913;28;20627;-49
2022/09/30 05:46:06;;;;;;;10.67;5.77;;;13.60;62.70;;;;;;5043946;28;20856;-50
2022/09/30 05:48:31;;;;;;;8.30;6.77;;;13.70;62.70;;;;;;5044954;28;20937;-49
2022/09/30 05:51:00;;;;;;;13.30;6.30;;;13.70;63.00;;;;;;5047187;28;20429;-47
2022/09/30 05:53:26;;;;;;;13.83;6.50;;;13.50;61.50;;;;;;5045996;28;20193;-46
2022/09/30 05:55:52;;;;;;;6.80;5.80;;;13.50;63.10;;;;;;5047982;28;20443;-49
2022/09/30 05:58:19;;;;;;;7.00;6.40;;;13.60;62.90;;;;;;5044884;28;20451;-46
2022/09/30 06:00:46;;;;;;;10.40;6.30;;;13.70;62.60;;;;;;5049707;28;20184;-46
2022/09/30 06:03:12;;;;;;;9.97;6.67;;;13.70;61.80;;;;;;5051072;28;20514;-47
2022/09/30 06:05:38;;;;;;;6.70;5.97;;;13.80;62.20;;;;;;5042227;28;20566;-46
2022/09/30 06:08:06;;;;;;;23.93;7.20;;;13.90;62.10;;;;;;5045507;28;20518;-46
2022/09/30 06:10:33;;;;;;;11.63;6.90;;;14.00;61.40;;;;;;5047085;28;20659;-47
2022/09/30 06:13:00;;;;;;;6.83;6.13;;;14.10;61.30;;;;;;5051597;28;20472;-45
2022/09/30 06:15:25;;;;;;;14.20;7.30;;;14.20;61.30;;;;;;5049768;28;20860;-46
2022/09/30 06:17:54;;;;;;;9.93;6.70;;;14.30;61.30;;;;;;5053254;28;20462;-46
2022/09/30 06:20:20;;;;;;;54.70;8.63;;;14.40;60.70;;;;;;5048505;28;20189;-46
2022/09/30 06:22:46;;;;;;;7.63;6.40;;;14.30;59.20;;;;;;5048732;28;20551;-47
2022/09/30 06:25:13;;;;;;;11.07;7.20;;;14.10;60.10;;;;;;5047122;28;20435;-47
2022/09/30 06:27:39;;;;;;;10.67;7.10;;;14.20;60.80;;;;;;5045255;28;20197;-47
2022/09/30 06:30:05;;;;;;;7.40;6.70;;;14.30;61.70;;;;;;5056676;28;20535;-46
2022/09/30 06:32:31;;;;;;;8.97;7.33;;;14.40;60.80;;;;;;5058649;28;20192;-47
2022/09/30 06:34:56;;;;;;;19.43;6.73;;;14.40;60.20;;;;;;5047260;28;20488;-45
2022/09/30 06:37:22;;;;;;;20.70;7.67;;;14.10;59.70;;;;;;5047249;28;20268;-46
2022/09/30 06:39:51;;;;;;;14.87;6.60;;;14.00;61.50;;;;;;5047289;28;20189;-49
2022/09/30 06:42:17;;;;;;;16.43;7.77;;;14.10;61.70;;;;;;5049604;28;20913;-46
2022/09/30 06:44:44;;;;;;;13.47;7.97;;;14.20;61.10;;;;;;5050937;28;20991;-47
2022/09/30 06:47:12;;;;;;;12.63;7.40;;;14.30;60.60;;;;;;5043950;28;20470;-47
2022/09/30 06:49:38;;;;;;;17.73;8.00;;;14.30;61.00;;;;;;5039341;28;20485;-46
2022/09/30 06:52:04;;;;;;;8.57;7.77;;;14.30;60.50;;;;;;5051617;28;20813;-46
2022/09/30 06:54:30;;;;;;;8.33;7.47;;;14.40;60.80;;;;;;5047195;28;20446;-47
2022/09/30 06:56:58;;;;;;;11.10;7.20;;;14.40;60.70;;;;;;5048897;28;20664;-48
2022/09/30 06:59:24;;;;;;;11.70;8.30;;;14.50;60.60;;;;;;5050224;28;20208;-45
2022/09/30 07:01:50;;;;;;;8.93;7.70;;;14.30;60.70;;;;;;5050655;28;20484;-47
2022/09/30 07:04:15;;;;;;;17.33;7.13;;;14.30;61.30;;;;;;5051092;28;20490;-46
2022/09/30 07:06:41;;;;;;;8.57;7.30;;;13.50;60.40;;;;;;5049326;28;20189;-47
2022/09/30 07:09:07;;;;;;;8.37;6.70;;;13.40;63.70;;;;;;5043851;28;20604;-46
2022/09/30 07:11:33;;;;;;;11.67;7.57;;;13.50;63.70;;;;;;5043854;28;20189;-46
2022/09/30 07:13:59;;;;;;;30.80;7.87;;;13.70;63.60;;;;;;5048156;28;20469;-47
2022/09/30 07:16:25;;;;;;;9.60;6.77;;;13.80;62.30;;;;;;5051875;28;20956;-46
2022/09/30 07:18:50;;;;;;;8.37;7.27;;;13.80;61.50;;;;;;5049612;28;20439;-46
2022/09/30 07:21:16;;;;;;;8.50;7.70;;;13.50;63.20;;;;;;5048741;28;20205;-46
2022/09/30 07:23:46;;;;;;;14.17;7.50;;;13.50;64.00;;;;;;5044577;28;20582;-46
2022/09/30 07:26:14;;;;;;;11.10;7.70;;;13.60;63.70;;;;;;5044919;28;20435;-46
2022/09/30 07:28:40;;;;;;;20.80;7.73;;;13.70;64.50;;;;;;5045200;28;20820;-48
2022/09/30 07:31:10;;;;;;;32.63;8.53;;;13.90;64.30;;;;;;5043217;28;20466;-47
2022/09/30 07:33:37;;;;;;;7.80;7.00;;;14.10;63.30;;;;;;5043255;28;20458;-48
2022/09/30 07:36:04;;;;;;;10.27;8.07;;;14.20;63.00;;;;;;5048302;28;20450;-47
2022/09/30 07:38:30;;;;;;;7.83;7.10;;;14.40;62.50;;;;;;5045352;28;20443;-49
2022/09/30 07:40:57;;;;;;;13.17;8.10;;;14.50;62.20;;;;;;5048594;28;20449;-46
2022/09/30 07:43:37;;;;;;;9.60;7.80;;;14.70;61.20;;;;;;5045055;28;20497;-47
2022/09/30 07:46:07;;;;;;;8.90;7.20;;;14.70;61.50;;;;;;5045333;28;20455;-46
2022/09/30 07:48:41;;;;;;;8.50;7.60;;;14.70;61.70;;;;;;5042116;28;20466;-47
2022/09/30 07:51:08;;;;;;;9.00;8.10;;;14.80;61.40;;;;;;5049679;28;20454;-49
2022/09/30 07:53:34;;;;;;;9.03;8.13;;;14.80;61.30;;;;;;5036707;28;20448;-47
2022/09/30 07:56:06;;;;;;;7.77;6.97;;;14.90;62.20;;;;;;5047872;28;20461;-46
2022/09/30 07:58:33;;;;;;;8.87;7.97;;;15.10;61.20;;;;;;5047429;28;20275;-47
2022/09/30 08:00:58;;;;;;;9.00;8.10;;;15.30;61.20;;;;;;5047454;28;20522;-46
2022/09/30 08:03:24;;;;;;;8.97;8.07;;;15.50;60.70;;;;;;5038673;28;20578;-51
2022/09/30 08:05:50;;;;;;;8.13;7.33;;;15.60;60.00;;;;;;5047588;28;20930;-46
2022/09/30 08:08:16;;;;;;;8.50;7.80;;;15.70;59.60;;;;;;5029210;28;20193;-50
2022/09/30 08:10:42;;;;;;;9.17;8.37;;;15.80;59.40;;;;;;5042565;28;20204;-51
2022/09/30 08:13:09;;;;;;;8.90;8.00;;;15.90;59.00;;;;;;5043294;28;21206;-49
2022/09/30 08:15:34;;;;;;;8.33;7.53;;;16.00;58.80;;;;;;5044850;28;20553;-48
2022/09/30 08:18:00;;;;;;;8.73;8.00;;;16.00;58.60;;;;;;5043714;28;20461;-49
2022/09/30 08:20:27;;;;;;;8.90;7.50;;;16.10;59.00;;;;;;5050433;28;20914;-51
2022/09/30 08:22:53;;;;;;;7.70;7.00;;;16.10;59.10;;;;;;5046995;28;20683;-50
2022/09/30 08:25:19;;;;;;;9.83;7.90;;;16.20;58.90;;;;;;5049850;28;20431;-50
2022/09/30 08:27:45;;;;;;;8.40;7.60;;;16.30;58.90;;;;;;5047643;28;20450;-48
2022/09/30 08:30:11;;;;;;;9.73;8.00;;;16.30;58.70;;;;;;5049640;28;20597;-49
2022/09/30 08:32:37;;;;;;;9.40;8.40;;;16.30;59.10;;;;;;5050385;28;20228;-51
2022/09/30 08:35:03;;;;;;;11.70;8.13;;;16.50;59.00;;;;;;5051107;28;20462;-48
2022/09/30 08:37:28;;;;;;;8.90;8.00;;;16.60;58.30;;;;;;5047135;28;20721;-50
2022/09/30 08:39:54;;;;;;;8.33;7.53;;;16.70;58.40;;;;;;5049213;28;20768;-48
2022/09/30 08:42:44;;;;;;;9.53;7.63;;;16.70;58.20;;;;;;5042446;28;20199;-47
2022/09/30 08:45:21;;;;;;;9.07;8.17;;;16.80;58.50;;;;;;5044205;28;20238;-49
2022/09/30 08:48:07;;;;;;;9.80;8.80;;;16.90;58.30;;;;;;5044277;28;20465;-49
2022/09/30 08:50:47;;;;;;;8.87;7.97;;;17.00;57.70;;;;;;5043620;28;20470;-51
2022/09/30 08:53:41;;;;;;;10.10;9.10;;;17.10;57.50;;;;;;5043368;28;20593;-47
2022/09/30 08:56:10;;;;;;;9.93;8.93;;;17.00;57.50;;;;;;5048016;28;20447;-48
2022/09/30 08:58:40;;;;;;;10.13;8.53;;;17.00;57.70;;;;;;5047150;28;20447;-48
2022/09/30 09:01:14;;;;;;;11.07;9.80;;;17.10;57.90;;;;;;5047941;28;20442;-47
2022/09/30 09:03:40;;;;;;;7.63;6.93;;;17.20;58.00;;;;;;5044430;28;20566;-47
2022/09/30 09:06:24;;;;;;;8.33;7.53;;;17.20;58.00;;;;;;5045482;28;20988;-47
2022/09/30 09:08:50;;;;;;;9.70;8.20;;;17.30;58.00;;;;;;5038055;28;20559;-47
2022/09/30 09:11:35;;;;;;;9.13;8.33;;;17.30;57.80;;;;;;5042341;28;20462;-47
2022/09/30 09:14:03;;;;;;;9.10;8.30;;;17.40;57.50;;;;;;5035617;28;20439;-47
2022/09/30 09:16:38;;;;;;;11.77;8.17;;;17.50;57.20;;;;;;5049069;28;20463;-48
2022/09/30 09:19:09;;;;;;;9.43;8.43;;;17.50;57.40;;;;;;5041295;28;20466;-47
2022/09/30 09:21:55;;;;;;;10.10;8.60;;;17.60;57.50;;;;;;5049172;28;20506;-47
2022/09/30 09:24:27;;;;;;;9.77;8.87;;;17.70;57.40;;;;;;5046162;28;20918;-48
2022/09/30 09:26:55;;;;;;;9.97;9.13;;;17.80;57.20;;;;;;5047278;28;20848;-47
2022/09/30 09:29:42;;;;;;;11.00;8.40;;;17.80;57.30;;;;;;5050451;28;20477;-51
2022/09/30 09:32:13;;;;;;;10.27;9.40;;;17.60;57.60;;;;;;5042341;28;20440;-46
2022/09/30 09:34:42;;;;;;;10.53;9.40;;;17.70;57.80;;;;;;5046342;28;20475;-47
2022/09/30 09:40:38;;;;;;;9.17;8.37;;;18.30;56.60;;;;;;5044235;28;20810;-46
2022/09/30 09:43:13;;;;;;;10.33;9.27;;;18.40;56.40;;;;;;5048908;28;21028;-47
2022/09/30 09:45:54;;;;;;;10.37;9.23;;;18.60;56.60;;;;;;5050950;28;20442;-46
2022/09/30 09:48:20;;;;;;;9.70;8.90;;;18.80;56.20;;;;;;5044203;28;20440;-51
2022/09/30 09:50:57;;;;;;;9.97;9.07;;;19.10;55.10;;;;;;5042248;28;20450;-48
2022/09/30 09:53:44;;;;;;;9.30;8.40;;;19.10;54.90;;;;;;5048058;28;20571;-48
2022/09/30 09:56:17;;;;;;;7.47;6.77;;;19.30;54.70;;;;;;5044661;28;20456;-49
2022/09/30 09:59:20;;;;;;;7.30;6.70;;;19.30;53.60;;;;;;5045637;28;20446;-47
2022/09/30 10:01:51;;;;;;;7.97;7.27;;;19.50;52.60;;;;;;5050309;28;20467;-48
2022/09/30 10:04:25;;;;;;;9.43;6.47;;;19.70;53.20;;;;;;5049123;28;20494;-47
2022/09/30 10:06:58;;;;;;;4.33;3.97;;;19.80;53.50;;;;;;5028736;28;20544;-47
2022/09/30 10:09:26;;;;;;;6.20;5.70;;;19.90;50.70;;;;;;5046308;28;20473;-47
2022/09/30 10:12:06;;;;;;;5.97;5.37;;;20.00;50.80;;;;;;5048771;28;20790;-47
2022/09/30 10:14:51;;;;;;;5.67;5.17;;;20.30;51.00;;;;;;5049948;28;20460;-48
2022/09/30 10:17:36;;;;;;;5.70;5.20;;;20.40;50.10;;;;;;5045373;28;20570;-47
2022/09/30 10:20:13;;;;;;;6.73;5.80;;;20.60;49.50;;;;;;5046589;28;20443;-47
2022/09/30 10:22:39;;;;;;;6.17;5.07;;;20.80;50.10;;;;;;5047191;28;20463;-48
2022/09/30 10:25:13;;;;;;;5.60;4.80;;;20.80;49.10;;;;;;5046895;28;20505;-48
2022/09/30 10:28:25;;;;;;;5.07;4.10;;;20.90;48.60;;;;;;5044328;28;20810;-47
2022/09/30 10:30:57;;;;;;;5.30;3.93;;;21.10;48.50;;;;;;5025134;28;20470;-50
2022/09/30 10:33:29;;;;;;;5.30;3.70;;;21.20;46.90;;;;;;5047945;28;20447;-47
2022/09/30 10:36:08;;;;;;;4.67;3.03;;;21.40;47.50;;;;;;5046808;28;20456;-47
2022/09/30 10:38:35;;;;;;;3.33;3.03;;;21.50;47.20;;;;;;5052201;28;20450;-48
2022/09/30 10:41:03;;;;;;;3.23;2.93;;;21.80;47.30;;;;;;5048623;28;20541;-47
2022/09/30 10:43:36;;;;;;;2.73;2.20;;;22.10;47.20;;;;;;5050819;28;20599;-47
2022/09/30 10:46:03;;;;;;;3.07;2.00;;;22.20;42.80;;;;;;5048462;28;20875;-46
2022/09/30 10:48:33;;;;;;;2.53;2.33;;;22.20;45.30;;;;;;5043630;28;20951;-48
2022/09/30 10:50:59;;;;;;;2.30;2.10;;;22.50;44.30;;;;;;5045949;28;20475;-47
2022/09/30 10:53:34;;;;;;;3.87;2.10;;;22.70;43.20;;;;;;5044532;28;20554;-50
2022/09/30 10:56:00;;;;;;;1.60;1.50;;;23.10;42.90;;;;;;5048141;28;20196;-47
2022/09/30 10:58:47;;;;;;;1.70;1.60;;;23.40;41.90;;;;;;5040922;28;20432;-47
2022/09/30 11:01:24;;;;;;;1.90;1.80;;;23.60;40.50;;;;;;5048867;28;21095;-47
2022/09/30 11:04:05;;;;;;;4.80;1.63;;;23.20;41.60;;;;;;5046738;28;20490;-48
2022/09/30 11:06:35;;;;;;;2.50;1.80;;;23.50;41.90;;;;;;5046494;28;20447;-50
2022/09/30 11:09:08;;;;;;;1.73;1.50;;;23.80;41.70;;;;;;5048806;28;20558;-48
2022/09/30 11:11:44;;;;;;;2.40;1.73;;;24.10;41.30;;;;;;5041113;28;20447;-47
2022/09/30 11:14:46;;;;;;;2.17;1.67;;;24.40;39.90;;;;;;5037763;28;20442;-47
2022/09/30 11:17:26;;;;;;;1.97;1.63;;;24.60;39.90;;;;;;5042466;28;20455;-51
2022/09/30 11:20:21;;;;;;;1.70;1.60;;;24.80;38.80;;;;;;5044472;28;20569;-48
2022/09/30 11:23:02;;;;;;;4.07;2.10;;;24.90;36.90;;;;;;5033192;28;20448;-47
2022/09/30 11:25:44;;;;;;;3.30;1.87;;;24.80;38.20;;;;;;5042051;28;20446;-47
2022/09/30 11:28:32;;;;;;;2.87;2.23;;;25.10;38.70;;;;;;5046193;28;20440;-51
2022/09/30 11:31:03;;;;;;;1.80;1.63;;;25.20;38.30;;;;;;5048522;28;20516;-47
2022/09/30 11:33:31;;;;;;;1.60;1.50;;;25.40;38.90;;;;;;5046227;28;20439;-47
2022/09/30 11:36:21;;;;;;;1.60;1.50;;;25.50;38.40;;;;;;5038810;28;20454;-48
2022/09/30 11:39:08;;;;;;;1.50;1.40;;;25.50;37.50;;;;;;5046901;28;20455;-48
2022/09/30 11:41:50;;;;;;;1.60;1.20;;;25.50;36.50;;;;;;5046921;28;20450;-47
2022/09/30 11:44:25;;;;;;;1.40;1.30;;;25.40;36.60;;;;;;5047837;28;20522;-46
2022/09/30 11:47:26;;;;;;;1.53;1.43;;;25.40;38.10;;;;;;5046504;28;20498;-47
2022/09/30 11:50:27;;;;;;;1.87;1.40;;;25.50;36.50;;;;;;5051069;28;20455;-47
2022/09/30 11:53:19;;;;;;;2.10;1.30;;;25.50;36.00;;;;;;5041413;28;20500;-48
2022/09/30 11:56:17;;;;;;;2.07;1.30;;;25.60;36.00;;;;;;5044102;28;20525;-47
2022/09/30 11:58:49;;;;;;;3.23;1.40;;;25.90;34.00;;;;;;5042953;28;20558;-47
2022/09/30 12:01:21;;;;;;;3.03;1.60;;;26.20;34.50;;;;;;5047924;28;20450;-48
2022/09/30 12:04:41;;;;;;;1.30;1.20;;;26.40;34.10;;;;;;5048857;28;20485;-55
2022/09/30 12:07:16;;;;;;;1.53;1.43;;;26.50;34.20;;;;;;5022065;28;20454;-47
2022/09/30 12:09:48;;;;;;;2.40;1.20;;;26.50;34.40;;;;;;5041694;28;21076;-46
2022/09/30 12:12:16;;;;;;;1.57;1.33;;;26.40;33.70;;;;;;5050220;28;20447;-50
2022/09/30 12:14:48;;;;;;;1.33;1.23;;;26.10;32.80;;;;;;5044765;28;20466;-46
2022/09/30 12:17:33;;;;;;;2.30;1.30;;;26.20;33.50;;;;;;5044137;28;20537;-47
2022/09/30 12:20:24;;;;;;;1.40;1.30;;;26.40;33.60;;;;;;5048046;28;20482;-46
2022/09/30 12:22:55;;;;;;;1.20;1.10;;;26.50;33.90;;;;;;5048880;28;20443;-46
2022/09/30 12:25:46;;;;;;;1.97;1.47;;;26.70;34.20;;;;;;5047948;28;20534;-45
2022/09/30 12:31:41;;;;;;;2.60;1.70;;;26.50;32.60;;;;;;5045508;28;20822;-47
2022/09/30 12:34:31;;;;;;;1.77;1.10;;;26.50;33.80;;;;;;5047990;28;20454;-47
2022/09/30 12:37:19;;;;;;;1.67;1.40;;;26.50;34.10;;;;;;5043404;28;20465;-46
2022/09/30 12:40:05;;;;;;;1.50;1.40;;;26.60;33.30;;;;;;5025489;28;21041;-46
2022/09/30 12:42:41;;;;;;;2.30;1.50;;;26.60;33.20;;;;;;5049115;28;20521;-47
2022/09/30 12:45:28;;;;;;;1.83;1.70;;;26.60;33.70;;;;;;5046721;28;21068;-50
2022/09/30 12:48:01;;;;;;;3.63;1.67;;;26.60;33.40;;;;;;5046086;28;20481;-48
2022/09/30 12:50:33;;;;;;;2.20;1.57;;;26.50;33.90;;;;;;5041180;28;20963;-49
2022/09/30 12:53:15;;;;;;;1.53;1.20;;;26.70;33.40;;;;;;5043378;28;20443;-51
2022/09/30 12:55:41;;;;;;;1.83;1.67;;;26.80;33.00;;;;;;5038770;28;20470;-50
2022/09/30 12:58:23;;;;;;;1.40;1.23;;;26.30;33.60;;;;;;5044450;28;20482;-47
2022/09/30 13:01:05;;;;;;;1.90;1.33;;;26.50;33.40;;;;;;5040801;28;20428;-51
2022/09/30 13:03:49;;;;;;;1.70;1.30;;;26.70;33.40;;;;;;5031003;28;20480;-50
2022/09/30 13:06:17;;;;;;;1.80;1.70;;;26.60;33.10;;;;;;5036356;28;20452;-51
2022/09/30 13:08:46;;;;;;;1.40;1.30;;;26.70;32.90;;;;;;5036936;28;20466;-51
2022/09/30 13:11:35;;;;;;;2.40;1.40;;;26.30;33.80;;;;;;5032929;28;20432;-48
2022/09/30 13:14:32;;;;;;;2.17;1.27;;;26.30;34.00;;;;;;5049631;28;20454;-50
2022/09/30 13:17:07;;;;;;;1.47;1.37;;;26.50;33.70;;;;;;5046119;28;20464;-50
2022/09/30 13:19:43;;;;;;;2.20;1.63;;;26.70;33.70;;;;;;5039346;28;20485;-49
2022/09/30 13:22:23;;;;;;;2.80;1.50;;;27.00;33.50;;;;;;5030896;28;20451;-50
2022/09/30 13:25:03;;;;;;;2.40;1.40;;;27.20;33.50;;;;;;5029494;28;20483;-50